Forsyth, Georgia
Current Conditions -  °F | °C
As of 7:15 AM on Sunday 23 Nov 2014 (Local Time) from KOPN Reporting Station
Moderate Rain Moderate Rain  
Wind Chill: 55°   Ceiling: 400
Heat Index: 55°   Visibility: 4mi
Dew Point: 54°   Wind: 8mph
Humidity: 94%   Direction: 80°E
Pressure: 30.01"   Gusts: NA
Location:  33.03°N, 83.94°W
Report Text: KOPN 231215Z AUTO 08007KT 4SM RA OVC004 13/12 A3001 RMK AO2
Loading
Personal Weather Stations






























Interactive Weather Map New forecast layout! Learn more

10-Day Weather Forecast

Advertisements
Track Severe Weather on mobile